Weather reports worldwide

Advertisment
Langdon Bay, United Kingdom (3796): temperature & dewpoint: 13.09.2017 12:00:00 - 19.09.2017 12:00:00 (BST)Langdon Bay, United Kingdom (3796): wind speed & gusts: 13.09.2017 12:00:00 - 19.09.2017 12:00:00 (BST)Langdon Bay, United Kingdom (3796): wind direction: 13.09.2017 12:00:00 - 19.09.2017 12:00:00 (BST)Langdon Bay, United Kingdom (3796): reduced air pressure: 13.09.2017 12:00:00 - 19.09.2017 12:00:00 (BST)
Date & Time tt [°C] td [°C] ff [km/h] ff [kn] fx [km/h] fx [kn] dd ppp [hPa]
19.09.2017 12:00:00 15,6 10,4 15 8 - - NW 1021,1
19.09.2017 11:00:00 15,4 10,9 13 7 - - NNW 1020,5
19.09.2017 10:00:00 12,8 9,8 24 13 - - NNW 1020,5
19.09.2017 09:00:00 11,6 9,9 22 12 - - NNW 1019,7
19.09.2017 08:00:00 9,7 9,2 24 13 - - NW 1019,5
19.09.2017 07:00:00 8,6 8,4 21 11 - - NNW 1019,4
19.09.2017 06:00:00 8,7 8,4 21 11 - - NW 1019,0
19.09.2017 05:00:00 9,3 8,8 24 13 - - NW 1018,4
19.09.2017 04:00:00 9,8 9,0 24 13 - - NW 1018,2
19.09.2017 03:00:00 10,1 8,9 22 12 - - NW 1018,2
19.09.2017 02:00:00 10,6 9,1 24 13 - - NW 1018,3
19.09.2017 01:00:00 10,5 8,8 21 11 - - NNW 1018,3
19.09.2017 00:00:00 10,7 9,1 16 9 - - NNW 1018,3
18.09.2017 23:00:00 10,9 9,3 15 8 - - NW 1018,4
18.09.2017 22:00:00 11,0 9,2 16 9 - - NW 1018,4
18.09.2017 21:00:00 11,6 9,5 18 10 - - NW 1018,2
18.09.2017 20:00:00 12,1 9,0 18 10 - - NNW 1017,4
18.09.2017 19:00:00 12,4 8,8 21 11 - - NNW 1017,1
18.09.2017 18:00:00 12,9 7,7 24 13 - - NW 1016,8
18.09.2017 17:00:00 14,7 8,5 29 16 - - NW 1016,5
18.09.2017 16:00:00 16,5 10,1 24 13 - - NNW 1016,1
18.09.2017 15:00:00 15,9 9,6 22 12 - - NW 1016,1
18.09.2017 14:00:00 17,2 10,2 16 9 - - NNW 1016,1
18.09.2017 13:00:00 15,3 10,1 22 12 - - NNW 1016,1
18.09.2017 12:00:00 14,6 11,1 21 11 - - NW 1016,1
18.09.2017 11:00:00 14,1 11,1 16 9 - - NNW 1015,9
18.09.2017 10:00:00 12,6 10,8 18 10 - - NW 1015,8
18.09.2017 09:00:00 11,8 10,9 18 10 - - NW 1015,6
18.09.2017 08:00:00 11,0 10,8 22 12 - - NW 1015,1
18.09.2017 07:00:00 10,3 10,2 24 13 - - NW 1014,9
18.09.2017 06:00:00 9,9 9,9 28 15 - - NW 1014,7
18.09.2017 05:00:00 9,9 9,7 24 13 - - NW 1014,5
18.09.2017 04:00:00 9,9 9,6 16 9 - - NW 1014,5
18.09.2017 03:00:00 9,9 9,5 22 12 - - NW 1014,5
18.09.2017 02:00:00 10,3 9,5 22 12 - - NW 1014,5
18.09.2017 01:00:00 10,6 9,7 21 11 - - NW 1014,7
18.09.2017 00:00:00 11,2 10,2 21 11 - - NW 1014,7
17.09.2017 23:00:00 11,8 10,5 21 11 - - NW 1014,7
17.09.2017 22:00:00 11,9 10,4 18 10 - - NW 1014,6
17.09.2017 21:00:00 12,0 9,9 18 10 - - NW 1014,4
17.09.2017 20:00:00 11,7 9,2 13 7 - - WNW 1014,1
17.09.2017 19:00:00 12,4 8,7 9 5 - - NW 1013,5
17.09.2017 18:00:00 14,1 9,4 15 8 - - NW 1013,2
17.09.2017 17:00:00 14,3 10,4 4 2 - - S 1012,8
17.09.2017 16:00:00 13,3 9,5 4 2 - - SSE 1013,0
17.09.2017 15:00:00 14,3 10,0 5 3 - - SSE 1013,1
17.09.2017 14:00:00 15,6 9,3 4 2 - - N 1012,9
17.09.2017 13:00:00 13,9 10,1 11 6 - - NNW 1013,4
17.09.2017 12:00:00 12,5 9,7 9 5 - - NNW 1013,4
17.09.2017 11:00:00 13,4 11,0 11 6 - - NNW 1013,1
17.09.2017 10:00:00 11,0 11,0 15 8 - - NNW 1013,0
17.09.2017 09:00:00 9,8 9,7 16 9 - - NNW 1012,6
17.09.2017 08:00:00 9,0 9,0 18 10 - - NNW 1012,3
17.09.2017 07:00:00 8,3 8,3 15 8 - - NNW 1012,0
17.09.2017 06:00:00 8,1 8,0 16 9 - - NW 1011,5
17.09.2017 05:00:00 8,7 8,6 16 9 - - NW 1011,4
17.09.2017 04:00:00 8,9 8,8 15 8 - - NW 1011,5
17.09.2017 03:00:00 8,9 8,7 15 8 - - NNW 1011,4
17.09.2017 02:00:00 9,1 8,8 15 8 - - NW 1011,5
17.09.2017 01:00:00 8,9 8,5 11 6 - - NW 1011,7
17.09.2017 00:00:00 9,4 8,8 16 9 - - NW 1011,6
16.09.2017 23:00:00 9,9 9,1 16 9 - - NW 1011,5
16.09.2017 22:00:00 10,0 8,7 21 11 - - WNW 1011,4
16.09.2017 21:00:00 10,7 8,7 16 9 - - WNW 1011,3
16.09.2017 20:00:00 11,0 8,5 16 9 - - NW 1011,0
16.09.2017 19:00:00 11,4 8,9 15 8 - - W 1010,6
16.09.2017 18:00:00 11,8 9,2 15 8 - - WSW 1010,5
16.09.2017 17:00:00 13,3 9,8 15 8 - - WSW 1010,2
16.09.2017 16:00:00 14,1 7,9 5 3 - - SSW 1010,3
16.09.2017 15:00:00 14,8 7,5 11 6 - - NNW 1010,3
16.09.2017 14:00:00 15,0 8,4 9 5 - - NW 1010,7
16.09.2017 13:00:00 14,2 8,7 13 7 - - NW 1011,0
16.09.2017 12:00:00 14,6 8,6 16 9 - - NW 1011,1
16.09.2017 11:00:00 15,0 10,0 15 8 - - NNW 1011,1
16.09.2017 10:00:00 13,2 9,9 16 9 - - NW 1011,3
16.09.2017 09:00:00 11,6 9,8 21 11 - - NNW 1011,0
16.09.2017 08:00:00 10,3 9,6 18 10 - - NW 1010,8
16.09.2017 07:00:00 8,9 8,4 21 11 - - NNW 1010,6
16.09.2017 06:00:00 9,2 8,8 18 10 - - NW 1010,6
16.09.2017 05:00:00 9,0 8,6 21 11 - - NNW 1010,9
16.09.2017 04:00:00 10,0 9,4 16 9 - - NNW 1011,1
16.09.2017 03:00:00 10,5 9,9 18 10 - - NNW 1011,3
16.09.2017 02:00:00 10,7 10,1 22 12 - - NW 1011,4
16.09.2017 01:00:00 11,0 10,2 21 11 - - NW 1011,7
16.09.2017 00:00:00 11,0 10,3 15 8 - - NW 1012,2
15.09.2017 23:00:00 10,5 10,0 16 9 - - NNW 1012,2
15.09.2017 22:00:00 10,3 9,3 15 8 - - NNW 1012,0
15.09.2017 21:00:00 11,0 9,5 21 11 - - NNW 1011,9
15.09.2017 20:00:00 11,3 9,2 18 10 - - NNW 1012,0
15.09.2017 19:00:00 12,6 8,8 18 10 - - NNW 1011,8
15.09.2017 18:00:00 14,0 8,3 9 5 - - SW 1011,6
15.09.2017 17:00:00 14,5 8,4 8 4 - - S 1011,7
15.09.2017 16:00:00 13,9 7,9 8 4 - - WSW 1011,7
15.09.2017 15:00:00 14,5 6,7 5 3 - - NNW 1012,0
15.09.2017 14:00:00 15,7 7,9 4 2 - - SSW 1012,1
15.09.2017 13:00:00 13,8 6,4 8 4 - - WNW 1012,4
15.09.2017 12:00:00 13,2 7,4 11 6 - - WNW 1012,6
15.09.2017 11:00:00 14,3 8,6 11 6 - - W 1012,6
15.09.2017 10:00:00 12,9 8,1 15 8 - - NW 1012,5
15.09.2017 09:00:00 11,2 7,9 15 8 - - NW 1012,3
15.09.2017 08:00:00 9,5 7,2 21 11 - - NW 1012,2
15.09.2017 07:00:00 8,1 6,3 22 12 - - WNW 1012,3
15.09.2017 06:00:00 8,2 6,1 21 11 - - WNW 1012,4
15.09.2017 05:00:00 8,7 6,3 24 13 - - NW 1012,4
15.09.2017 04:00:00 9,0 6,5 24 13 - - NW 1012,5
15.09.2017 03:00:00 9,2 6,6 24 13 - - WNW 1012,4
15.09.2017 02:00:00 9,8 6,8 26 14 - - NW 1012,4
15.09.2017 01:00:00 10,2 7,1 26 14 - - NW 1012,7
15.09.2017 00:00:00 10,9 7,6 24 13 - - NW 1012,8
14.09.2017 23:00:00 11,4 7,6 15 8 - - WNW 1012,9
14.09.2017 22:00:00 11,6 7,9 21 11 - - NW 1012,7
14.09.2017 21:00:00 11,4 7,9 24 13 - - NW 1012,9
14.09.2017 20:00:00 11,5 8,0 11 6 - - WNW 1012,4
14.09.2017 19:00:00 12,4 8,2 8 4 - - WNW 1011,4
14.09.2017 18:00:00 15,1 8,8 11 6 - - W 1010,8
14.09.2017 17:00:00 15,0 7,9 15 8 - - W 1010,5
14.09.2017 16:00:00 15,0 7,8 21 11 - - W 1010,1
14.09.2017 15:00:00 16,2 7,5 22 12 - - W 1009,5
14.09.2017 14:00:00 14,7 8,4 22 12 - - W 1009,0
14.09.2017 13:00:00 13,6 8,7 24 13 - - W 1008,3
14.09.2017 12:00:00 12,4 8,2 24 13 - - W 1007,4
14.09.2017 11:00:00 11,7 7,5 21 11 - - W 1006,4
14.09.2017 10:00:00 12,0 8,3 21 11 - - W 1005,3
14.09.2017 09:00:00 10,7 7,5 21 11 48 26 WNW 1003,9
14.09.2017 08:00:00 8,7 6,8 22 12 - - WNW 1003,2
14.09.2017 07:00:00 7,8 6,3 22 12 - - WNW 1002,5
14.09.2017 06:00:00 7,8 6,3 21 11 - - WNW 1001,9
14.09.2017 05:00:00 8,1 6,4 18 10 - - W 1001,7
14.09.2017 04:00:00 8,6 6,6 16 9 - - W 1001,2
14.09.2017 03:00:00 9,0 6,8 15 8 - - WNW 1001,0
14.09.2017 02:00:00 9,9 7,2 13 7 - - W 1001,3
14.09.2017 01:00:00 10,3 7,5 15 8 - - W 1001,7
14.09.2017 00:00:00 10,0 7,6 11 6 - - W 1001,8
13.09.2017 23:00:00 10,5 7,9 15 8 - - W 1002,1
13.09.2017 22:00:00 10,9 8,2 18 10 - - W 1002,0
13.09.2017 21:00:00 11,8 9,7 21 11 - - W 1001,8
13.09.2017 20:00:00 11,7 10,4 21 11 - - W 1001,1
13.09.2017 19:00:00 12,1 10,8 26 14 - - WSW 1000,5
13.09.2017 18:00:00 12,8 11,1 22 12 63 34 W 1000,8
13.09.2017 17:00:00 15,5 9,6 44 24 67 36 WSW 1000,4
13.09.2017 16:00:00 16,3 11,2 34 18 65 35 WSW 1001,1
13.09.2017 15:00:00 16,2 9,0 46 25 63 34 WSW 1001,4
13.09.2017 14:00:00 17,9 9,2 31 17 59 32 WSW 1001,5
13.09.2017 13:00:00 17,8 8,9 39 21 65 35 WSW 1001,3
13.09.2017 12:00:00 17,2 9,1 34 18 61 33 WSW 1001,2

tt = temperature
td = dewpoint
ff = wind speed
fx = gusts
dd = wind direction
ppp = reduced air pressure

Next stations